sensor_id;sensor_type;location;lat;lon;timestamp;pressure;altitude;pressure_sealevel;temperature;humidity
47670;BME280;33408;52.062;11.722;2023-01-28T00:00:46;102299.91;;;0.11;100.00
47670;BME280;33408;52.062;11.722;2023-01-28T00:03:14;102301.47;;;0.25;100.00
47670;BME280;33408;52.062;11.722;2023-01-28T00:05:41;102305.69;;;0.25;100.00
47670;BME280;33408;52.062;11.722;2023-01-28T00:08:07;102305.41;;;0.36;100.00
47670;BME280;33408;52.062;11.722;2023-01-28T00:10:35;102306.22;;;0.35;100.00
47670;BME280;33408;52.062;11.722;2023-01-28T00:13:03;102308.56;;;0.31;100.00
47670;BME280;33408;52.062;11.722;2023-01-28T00:15:33;102306.34;;;0.39;100.00
47670;BME280;33408;52.062;11.722;2023-01-28T00:17:59;102313.97;;;0.21;100.00
47670;BME280;33408;52.062;11.722;2023-01-28T00:20:27;102319.66;;;0.15;100.00
47670;BME280;33408;52.062;11.722;2023-01-28T00:22:54;102315.66;;;0.20;100.00
47670;BME280;33408;52.062;11.722;2023-01-28T00:25:20;102317.00;;;0.30;100.00
47670;BME280;33408;52.062;11.722;2023-01-28T00:27:48;102311.50;;;0.22;100.00
47670;BME280;33408;52.062;11.722;2023-01-28T00:30:16;102314.50;;;0.13;100.00
47670;BME280;33408;52.062;11.722;2023-01-28T00:32:43;102313.47;;;0.10;100.00
47670;BME280;33408;52.062;11.722;2023-01-28T00:35:09;102313.09;;;0.02;100.00
47670;BME280;33408;52.062;11.722;2023-01-28T00:37:37;102310.50;;;0.18;100.00
47670;BME280;33408;52.062;11.722;2023-01-28T00:40:05;102308.22;;;0.07;100.00
47670;BME280;33408;52.062;11.722;2023-01-28T00:42:34;102309.94;;;0.08;100.00
47670;BME280;33408;52.062;11.722;2023-01-28T00:45:01;102308.44;;;0.11;100.00
47670;BME280;33408;52.062;11.722;2023-01-28T00:47:28;102301.00;;;0.16;100.00
47670;BME280;33408;52.062;11.722;2023-01-28T00:49:54;102304.22;;;0.12;100.00
47670;BME280;33408;52.062;11.722;2023-01-28T00:52:21;102304.00;;;0.25;100.00
47670;BME280;33408;52.062;11.722;2023-01-28T00:54:49;102300.81;;;-0.05;100.00
47670;BME280;33408;52.062;11.722;2023-01-28T00:57:16;102306.88;;;-0.03;100.00
47670;BME280;33408;52.062;11.722;2023-01-28T00:59:42;102293.75;;;-0.11;100.00
47670;BME280;33408;52.062;11.722;2023-01-28T01:02:09;102297.41;;;-0.06;100.00
47670;BME280;33408;52.062;11.722;2023-01-28T01:04:37;102297.09;;;-0.12;100.00
47670;BME280;33408;52.062;11.722;2023-01-28T01:07:04;102295.09;;;-0.01;100.00
47670;BME280;33408;52.062;11.722;2023-01-28T01:09:31;102308.22;;;-0.10;100.00
47670;BME280;33408;52.062;11.722;2023-01-28T01:11:59;102307.28;;;-0.28;100.00
47670;BME280;33408;52.062;11.722;2023-01-28T01:14:25;102310.56;;;-0.14;100.00
47670;BME280;33408;52.062;11.722;2023-01-28T01:16:52;102303.31;;;-0.23;100.00
47670;BME280;33408;52.062;11.722;2023-01-28T01:19:19;102305.38;;;-0.16;100.00
47670;BME280;33408;52.062;11.722;2023-01-28T01:21:45;102305.94;;;-0.22;100.00
47670;BME280;33408;52.062;11.722;2023-01-28T01:24:14;102309.69;;;-0.31;100.00
47670;BME280;33408;52.062;11.722;2023-01-28T01:26:41;102312.94;;;-0.17;100.00
47670;BME280;33408;52.062;11.722;2023-01-28T01:29:09;102319.94;;;-0.13;100.00
47670;BME280;33408;52.062;11.722;2023-01-28T01:31:35;102321.31;;;-0.37;100.00
47670;BME280;33408;52.062;11.722;2023-01-28T01:34:02;102326.41;;;-0.37;100.00
47670;BME280;33408;52.062;11.722;2023-01-28T01:36:29;102322.34;;;-0.33;100.00
47670;BME280;33408;52.062;11.722;2023-01-28T01:38:56;102321.56;;;-0.32;100.00
47670;BME280;33408;52.062;11.722;2023-01-28T01:41:25;102324.78;;;-0.18;100.00
47670;BME280;33408;52.062;11.722;2023-01-28T01:43:54;102324.34;;;-0.27;100.00
47670;BME280;33408;52.062;11.722;2023-01-28T01:46:26;102328.63;;;-0.43;100.00
47670;BME280;33408;52.062;11.722;2023-01-28T01:48:56;102318.13;;;-0.32;100.00
47670;BME280;33408;52.062;11.722;2023-01-28T01:51:30;102323.53;;;-0.43;100.00
47670;BME280;33408;52.062;11.722;2023-01-28T01:53:58;102319.88;;;-0.15;100.00
47670;BME280;33408;52.062;11.722;2023-01-28T01:56:29;102319.97;;;-0.30;100.00
47670;BME280;33408;52.062;11.722;2023-01-28T01:58:58;102315.56;;;-0.32;100.00
47670;BME280;33408;52.062;11.722;2023-01-28T02:01:28;102319.16;;;-0.29;100.00
47670;BME280;33408;52.062;11.722;2023-01-28T02:04:01;102316.38;;;-0.17;100.00
47670;BME280;33408;52.062;11.722;2023-01-28T02:06:30;102328.78;;;-0.23;100.00
47670;BME280;33408;52.062;11.722;2023-01-28T02:08:57;102324.34;;;-0.27;100.00
47670;BME280;33408;52.062;11.722;2023-01-28T02:11:26;102321.47;;;-0.33;100.00
47670;BME280;33408;52.062;11.722;2023-01-28T02:13:56;102325.94;;;-0.46;100.00
47670;BME280;33408;52.062;11.722;2023-01-28T02:16:24;102327.50;;;-0.15;100.00
47670;BME280;33408;52.062;11.722;2023-01-28T02:18:52;102342.47;;;-0.21;100.00
47670;BME280;33408;52.062;11.722;2023-01-28T02:21:54;102333.72;;;-0.26;100.00
47670;BME280;33408;52.062;11.722;2023-01-28T02:24:50;102340.50;;;-0.27;100.00
47670;BME280;33408;52.062;11.722;2023-01-28T02:27:26;102336.34;;;-0.25;100.00
47670;BME280;33408;52.062;11.722;2023-01-28T02:29:58;102339.47;;;-0.14;100.00
47670;BME280;33408;52.062;11.722;2023-01-28T02:32:34;102326.69;;;0.03;100.00
47670;BME280;33408;52.062;11.722;2023-01-28T02:35:07;102336.13;;;-0.13;100.00
47670;BME280;33408;52.062;11.722;2023-01-28T02:37:39;102343.34;;;-0.04;100.00
47670;BME280;33408;52.062;11.722;2023-01-28T02:40:10;102334.81;;;0.12;100.00
47670;BME280;33408;52.062;11.722;2023-01-28T02:42:38;102340.97;;;-0.01;100.00
47670;BME280;33408;52.062;11.722;2023-01-28T02:45:15;102343.13;;;-0.09;100.00
47670;BME280;33408;52.062;11.722;2023-01-28T02:47:43;102346.63;;;-0.07;100.00
47670;BME280;33408;52.062;11.722;2023-01-28T02:50:30;102348.88;;;-0.13;100.00
47670;BME280;33408;52.062;11.722;2023-01-28T02:53:10;102348.41;;;-0.22;100.00
47670;BME280;33408;52.062;11.722;2023-01-28T02:56:02;102343.13;;;-0.09;100.00
47670;BME280;33408;52.062;11.722;2023-01-28T02:58:36;102345.31;;;0.02;100.00
47670;BME280;33408;52.062;11.722;2023-01-28T03:01:12;102347.03;;;-0.15;100.00
47670;BME280;33408;52.062;11.722;2023-01-28T03:03:49;102341.59;;;0.11;100.00
47670;BME280;33408;52.062;11.722;2023-01-28T03:06:23;102345.81;;;-0.06;100.00
47670;BME280;33408;52.062;11.722;2023-01-28T03:08:54;102351.63;;;-0.08;100.00
47670;BME280;33408;52.062;11.722;2023-01-28T03:11:41;102343.88;;;0.23;100.00
47670;BME280;33408;52.062;11.722;2023-01-28T03:14:27;102350.69;;;-0.10;100.00
47670;BME280;33408;52.062;11.722;2023-01-28T03:17:17;102343.91;;;-0.10;100.00
47670;BME280;33408;52.062;11.722;2023-01-28T03:20:06;102342.19;;;-0.11;100.00
47670;BME280;33408;52.062;11.722;2023-01-28T03:22:53;102351.00;;;-0.04;100.00
47670;BME280;33408;52.062;11.722;2023-01-28T03:25:40;102338.69;;;-0.13;100.00
47670;BME280;33408;52.062;11.722;2023-01-28T03:28:28;102340.84;;;0.14;100.00
47670;BME280;33408;52.062;11.722;2023-01-28T03:31:16;102344.88;;;-0.08;100.00
47670;BME280;33408;52.062;11.722;2023-01-28T03:34:05;102349.47;;;-0.01;100.00
47670;BME280;33408;52.062;11.722;2023-01-28T03:36:50;102346.69;;;-0.05;100.00
47670;BME280;33408;52.062;11.722;2023-01-28T03:39:22;102351.25;;;0.01;100.00
47670;BME280;33408;52.062;11.722;2023-01-28T03:41:57;102350.44;;;-0.15;100.00
47670;BME280;33408;52.062;11.722;2023-01-28T03:44:24;102360.00;;;0.06;100.00
47670;BME280;33408;52.062;11.722;2023-01-28T03:47:09;102350.81;;;0.09;100.00
47670;BME280;33408;52.062;11.722;2023-01-28T03:49:38;102356.81;;;-0.07;100.00
47670;BME280;33408;52.062;11.722;2023-01-28T03:52:05;102352.28;;;-0.12;100.00
47670;BME280;33408;52.062;11.722;2023-01-28T03:54:31;102346.03;;;0.15;100.00
47670;BME280;33408;52.062;11.722;2023-01-28T03:56:58;102353.16;;;-0.12;100.00
47670;BME280;33408;52.062;11.722;2023-01-28T03:59:24;102351.72;;;0.10;100.00
47670;BME280;33408;52.062;11.722;2023-01-28T04:01:51;102356.50;;;0.04;100.00
47670;BME280;33408;52.062;11.722;2023-01-28T04:04:19;102361.69;;;0.05;100.00
47670;BME280;33408;52.062;11.722;2023-01-28T04:06:51;102355.75;;;0.06;100.00
47670;BME280;33408;52.062;11.722;2023-01-28T04:09:19;102356.19;;;-0.03;100.00
47670;BME280;33408;52.062;11.722;2023-01-28T04:11:46;102352.44;;;0.07;100.00
47670;BME280;33408;52.062;11.722;2023-01-28T04:14:13;102348.03;;;0.05;100.00
47670;BME280;33408;52.062;11.722;2023-01-28T04:16:40;102343.50;;;0.15;100.00
47670;BME280;33408;52.062;11.722;2023-01-28T04:19:07;102342.41;;;0.28;100.00
47670;BME280;33408;52.062;11.722;2023-01-28T04:21:34;102345.56;;;0.23;100.00
47670;BME280;33408;52.062;11.722;2023-01-28T04:24:02;102344.16;;;0.11;100.00
47670;BME280;33408;52.062;11.722;2023-01-28T04:26:28;102355.38;;;0.15;100.00
47670;BME280;33408;52.062;11.722;2023-01-28T04:28:55;102348.50;;;0.14;100.00
47670;BME280;33408;52.062;11.722;2023-01-28T04:31:22;102350.75;;;0.08;100.00
47670;BME280;33408;52.062;11.722;2023-01-28T04:33:49;102350.50;;;0.20;100.00
47670;BME280;33408;52.062;11.722;2023-01-28T04:36:15;102340.22;;;0.18;100.00
47670;BME280;33408;52.062;11.722;2023-01-28T04:38:42;102349.06;;;0.25;100.00
47670;BME280;33408;52.062;11.722;2023-01-28T04:41:10;102350.22;;;0.31;100.00
47670;BME280;33408;52.062;11.722;2023-01-28T04:43:36;102351.28;;;0.18;100.00
47670;BME280;33408;52.062;11.722;2023-01-28T04:46:03;102355.22;;;0.12;100.00
47670;BME280;33408;52.062;11.722;2023-01-28T04:48:30;102343.78;;;0.22;100.00
47670;BME280;33408;52.062;11.722;2023-01-28T04:50:56;102345.13;;;0.31;100.00
47670;BME280;33408;52.062;11.722;2023-01-28T04:53:23;102347.41;;;0.43;100.00
47670;BME280;33408;52.062;11.722;2023-01-28T04:55:49;102349.22;;;0.28;100.00
47670;BME280;33408;52.062;11.722;2023-01-28T04:58:17;102349.72;;;0.39;100.00
47670;BME280;33408;52.062;11.722;2023-01-28T05:00:44;102347.56;;;0.46;100.00
47670;BME280;33408;52.062;11.722;2023-01-28T05:03:10;102347.63;;;0.48;100.00
47670;BME280;33408;52.062;11.722;2023-01-28T05:05:37;102355.25;;;0.30;100.00
47670;BME280;33408;52.062;11.722;2023-01-28T05:08:04;102357.09;;;0.32;100.00
47670;BME280;33408;52.062;11.722;2023-01-28T05:10:30;102353.16;;;0.39;100.00
47670;BME280;33408;52.062;11.722;2023-01-28T05:12:57;102353.72;;;0.33;100.00
47670;BME280;33408;52.062;11.722;2023-01-28T05:15:25;102361.28;;;0.32;100.00
47670;BME280;33408;52.062;11.722;2023-01-28T05:17:53;102366.19;;;0.11;100.00
47670;BME280;33408;52.062;11.722;2023-01-28T05:20:20;102367.16;;;0.13;100.00
47670;BME280;33408;52.062;11.722;2023-01-28T05:22:46;102364.19;;;0.22;100.00
47670;BME280;33408;52.062;11.722;2023-01-28T05:25:13;102367.78;;;0.25;100.00
47670;BME280;33408;52.062;11.722;2023-01-28T05:27:40;102366.47;;;0.33;100.00
47670;BME280;33408;52.062;11.722;2023-01-28T05:30:07;102365.63;;;0.33;100.00
47670;BME280;33408;52.062;11.722;2023-01-28T05:32:35;102378.63;;;0.21;100.00
47670;BME280;33408;52.062;11.722;2023-01-28T05:35:02;102370.00;;;0.35;100.00
47670;BME280;33408;52.062;11.722;2023-01-28T05:37:29;102377.06;;;0.41;100.00
47670;BME280;33408;52.062;11.722;2023-01-28T05:39:55;102382.25;;;0.43;100.00
47670;BME280;33408;52.062;11.722;2023-01-28T05:42:22;102380.75;;;0.30;100.00
47670;BME280;33408;52.062;11.722;2023-01-28T05:44:49;102392.56;;;0.28;100.00
47670;BME280;33408;52.062;11.722;2023-01-28T05:47:15;102380.78;;;0.13;100.00
47670;BME280;33408;52.062;11.722;2023-01-28T05:49:43;102378.59;;;0.38;100.00
47670;BME280;33408;52.062;11.722;2023-01-28T05:52:10;102385.47;;;0.22;100.00
47670;BME280;33408;52.062;11.722;2023-01-28T05:54:37;102390.41;;;0.19;100.00
47670;BME280;33408;52.062;11.722;2023-01-28T05:57:03;102392.50;;;0.26;100.00
47670;BME280;33408;52.062;11.722;2023-01-28T05:59:30;102391.00;;;0.48;100.00
47670;BME280;33408;52.062;11.722;2023-01-28T06:01:57;102389.44;;;0.33;100.00
47670;BME280;33408;52.062;11.722;2023-01-28T06:04:23;102383.47;;;0.33;100.00
47670;BME280;33408;52.062;11.722;2023-01-28T06:06:51;102397.34;;;0.22;100.00
47670;BME280;33408;52.062;11.722;2023-01-28T06:09:18;102391.94;;;0.15;100.00
47670;BME280;33408;52.062;11.722;2023-01-28T06:11:44;102394.03;;;0.23;100.00
47670;BME280;33408;52.062;11.722;2023-01-28T06:14:11;102392.22;;;0.38;100.00
47670;BME280;33408;52.062;11.722;2023-01-28T06:16:37;102393.13;;;0.22;100.00
47670;BME280;33408;52.062;11.722;2023-01-28T06:19:04;102396.69;;;0.26;100.00
47670;BME280;33408;52.062;11.722;2023-01-28T06:21:31;102394.22;;;0.44;100.00
47670;BME280;33408;52.062;11.722;2023-01-28T06:23:59;102392.25;;;0.22;100.00
47670;BME280;33408;52.062;11.722;2023-01-28T06:26:25;102404.03;;;0.36;100.00
47670;BME280;33408;52.062;11.722;2023-01-28T06:28:52;102404.81;;;0.35;100.00
47670;BME280;33408;52.062;11.722;2023-01-28T06:31:18;102395.56;;;0.37;100.00
47670;BME280;33408;52.062;11.722;2023-01-28T06:33:45;102410.66;;;0.32;100.00
47670;BME280;33408;52.062;11.722;2023-01-28T06:36:12;102408.69;;;0.61;100.00
47670;BME280;33408;52.062;11.722;2023-01-28T06:38:38;102413.03;;;0.46;100.00
47670;BME280;33408;52.062;11.722;2023-01-28T06:41:06;102414.91;;;0.50;100.00
47670;BME280;33408;52.062;11.722;2023-01-28T06:43:33;102409.63;;;0.63;100.00
47670;BME280;33408;52.062;11.722;2023-01-28T06:45:59;102412.34;;;0.50;100.00
47670;BME280;33408;52.062;11.722;2023-01-28T06:48:26;102411.69;;;0.36;100.00
47670;BME280;33408;52.062;11.722;2023-01-28T06:50:53;102409.41;;;0.24;100.00
47670;BME280;33408;52.062;11.722;2023-01-28T06:53:20;102410.41;;;0.44;100.00
47670;BME280;33408;52.062;11.722;2023-01-28T06:55:47;102419.72;;;0.44;100.00
47670;BME280;33408;52.062;11.722;2023-01-28T06:58:15;102415.44;;;0.26;100.00
47670;BME280;33408;52.062;11.722;2023-01-28T07:00:42;102401.44;;;0.52;100.00
47670;BME280;33408;52.062;11.722;2023-01-28T07:03:08;102407.59;;;0.40;100.00
47670;BME280;33408;52.062;11.722;2023-01-28T07:05:35;102415.50;;;0.44;100.00
47670;BME280;33408;52.062;11.722;2023-01-28T07:08:02;102406.66;;;0.72;100.00
47670;BME280;33408;52.062;11.722;2023-01-28T07:10:28;102414.03;;;0.84;100.00
47670;BME280;33408;52.062;11.722;2023-01-28T07:12:55;102413.06;;;0.82;100.00
47670;BME280;33408;52.062;11.722;2023-01-28T07:15:23;102409.13;;;0.88;100.00
47670;BME280;33408;52.062;11.722;2023-01-28T07:17:49;102410.72;;;0.68;100.00
47670;BME280;33408;52.062;11.722;2023-01-28T07:20:16;102410.38;;;0.79;100.00
47670;BME280;33408;52.062;11.722;2023-01-28T07:22:43;102409.03;;;0.85;100.00
47670;BME280;33408;52.062;11.722;2023-01-28T07:25:12;102416.16;;;0.93;100.00
47670;BME280;33408;52.062;11.722;2023-01-28T07:27:43;102409.31;;;1.09;100.00
47670;BME280;33408;52.062;11.722;2023-01-28T07:30:11;102413.09;;;1.18;100.00
47670;BME280;33408;52.062;11.722;2023-01-28T07:32:39;102414.53;;;1.13;100.00
47670;BME280;33408;52.062;11.722;2023-01-28T07:35:06;102419.56;;;1.11;100.00
47670;BME280;33408;52.062;11.722;2023-01-28T07:37:33;102422.56;;;1.02;100.00
47670;BME280;33408;52.062;11.722;2023-01-28T07:40:00;102419.88;;;1.17;100.00
47670;BME280;33408;52.062;11.722;2023-01-28T07:42:26;102425.34;;;1.25;100.00
47670;BME280;33408;52.062;11.722;2023-01-28T07:44:53;102414.84;;;1.01;100.00
47670;BME280;33408;52.062;11.722;2023-01-28T07:47:19;102410.81;;;1.24;100.00
47670;BME280;33408;52.062;11.722;2023-01-28T07:49:47;102416.44;;;1.17;100.00
47670;BME280;33408;52.062;11.722;2023-01-28T07:52:14;102419.00;;;0.99;100.00
47670;BME280;33408;52.062;11.722;2023-01-28T07:54:40;102420.75;;;1.00;100.00
47670;BME280;33408;52.062;11.722;2023-01-28T07:57:07;102427.91;;;1.25;100.00
47670;BME280;33408;52.062;11.722;2023-01-28T07:59:35;102430.91;;;1.34;100.00
47670;BME280;33408;52.062;11.722;2023-01-28T08:02:01;102425.66;;;1.13;100.00
47670;BME280;33408;52.062;11.722;2023-01-28T08:04:28;102433.63;;;1.19;100.00
47670;BME280;33408;52.062;11.722;2023-01-28T08:06:56;102437.75;;;1.17;100.00
47670;BME280;33408;52.062;11.722;2023-01-28T08:09:23;102439.50;;;1.36;100.00
47670;BME280;33408;52.062;11.722;2023-01-28T08:11:49;102444.19;;;1.45;100.00
47670;BME280;33408;52.062;11.722;2023-01-28T08:14:16;102446.84;;;1.48;100.00
47670;BME280;33408;52.062;11.722;2023-01-28T08:16:43;102448.75;;;1.52;100.00
47670;BME280;33408;52.062;11.722;2023-01-28T08:19:10;102456.06;;;1.44;100.00
47670;BME280;33408;52.062;11.722;2023-01-28T08:21:36;102455.34;;;1.47;100.00
47670;BME280;33408;52.062;11.722;2023-01-28T08:24:05;102454.25;;;1.42;100.00
47670;BME280;33408;52.062;11.722;2023-01-28T08:26:31;102464.97;;;1.53;100.00
47670;BME280;33408;52.062;11.722;2023-01-28T08:28:58;102463.78;;;1.64;100.00
47670;BME280;33408;52.062;11.722;2023-01-28T08:31:24;102458.22;;;1.73;100.00
47670;BME280;33408;52.062;11.722;2023-01-28T08:33:51;102460.72;;;1.71;100.00
47670;BME280;33408;52.062;11.722;2023-01-28T08:36:18;102466.41;;;1.84;100.00
47670;BME280;33408;52.062;11.722;2023-01-28T08:38:44;102463.63;;;1.61;100.00
47670;BME280;33408;52.062;11.722;2023-01-28T08:41:12;102456.81;;;1.79;100.00
47670;BME280;33408;52.062;11.722;2023-01-28T08:43:39;102450.84;;;1.61;100.00
47670;BME280;33408;52.062;11.722;2023-01-28T08:46:05;102460.13;;;1.59;100.00
47670;BME280;33408;52.062;11.722;2023-01-28T08:48:32;102462.22;;;1.86;100.00
47670;BME280;33408;52.062;11.722;2023-01-28T08:50:59;102458.66;;;1.82;100.00
47670;BME280;33408;52.062;11.722;2023-01-28T08:53:25;102457.81;;;1.83;100.00
47670;BME280;33408;52.062;11.722;2023-01-28T08:55:53;102471.75;;;1.90;100.00
47670;BME280;33408;52.062;11.722;2023-01-28T08:58:21;102463.84;;;2.03;100.00
47670;BME280;33408;52.062;11.722;2023-01-28T09:00:48;102460.59;;;1.88;100.00
47670;BME280;33408;52.062;11.722;2023-01-28T09:03:16;102461.81;;;1.96;100.00
47670;BME280;33408;52.062;11.722;2023-01-28T09:05:43;102474.94;;;1.84;100.00
47670;BME280;33408;52.062;11.722;2023-01-28T09:08:11;102480.94;;;1.67;100.00
47670;BME280;33408;52.062;11.722;2023-01-28T09:10:39;102484.75;;;1.57;100.00
47670;BME280;33408;52.062;11.722;2023-01-28T09:13:07;102485.59;;;1.75;100.00
47670;BME280;33408;52.062;11.722;2023-01-28T09:15:35;102487.75;;;1.66;100.00
47670;BME280;33408;52.062;11.722;2023-01-28T09:18:02;102495.19;;;1.99;100.00
47670;BME280;33408;52.062;11.722;2023-01-28T09:20:29;102500.75;;;2.08;100.00
47670;BME280;33408;52.062;11.722;2023-01-28T09:22:57;102505.16;;;2.12;100.00
47670;BME280;33408;52.062;11.722;2023-01-28T09:25:24;102502.81;;;1.97;100.00
47670;BME280;33408;52.062;11.722;2023-01-28T09:27:50;102502.28;;;2.05;100.00
47670;BME280;33408;52.062;11.722;2023-01-28T09:30:17;102515.88;;;2.04;100.00
47670;BME280;33408;52.062;11.722;2023-01-28T09:32:48;102498.16;;;1.89;100.00
47670;BME280;33408;52.062;11.722;2023-01-28T09:35:15;102505.28;;;1.96;100.00
47670;BME280;33408;52.062;11.722;2023-01-28T09:37:42;102509.63;;;2.16;100.00
47670;BME280;33408;52.062;11.722;2023-01-28T09:40:12;102512.88;;;2.32;100.00
47670;BME280;33408;52.062;11.722;2023-01-28T09:42:58;102508.63;;;2.32;100.00
47670;BME280;33408;52.062;11.722;2023-01-28T09:45:32;102510.19;;;2.29;100.00
47670;BME280;33408;52.062;11.722;2023-01-28T09:48:05;102509.44;;;2.31;100.00
47670;BME280;33408;52.062;11.722;2023-01-28T09:50:35;102512.25;;;2.37;100.00
47670;BME280;33408;52.062;11.722;2023-01-28T09:53:06;102508.69;;;2.53;100.00
47670;BME280;33408;52.062;11.722;2023-01-28T09:55:38;102506.94;;;2.33;100.00
47670;BME280;33408;52.062;11.722;2023-01-28T09:58:09;102519.06;;;2.17;100.00
47670;BME280;33408;52.062;11.722;2023-01-28T10:00:42;102515.16;;;2.45;100.00
47670;BME280;33408;52.062;11.722;2023-01-28T10:03:27;102514.97;;;2.41;100.00
47670;BME280;33408;52.062;11.722;2023-01-28T10:06:05;102514.63;;;2.33;100.00
47670;BME280;33408;52.062;11.722;2023-01-28T10:08:42;102521.28;;;2.49;100.00
47670;BME280;33408;52.062;11.722;2023-01-28T10:11:24;102512.19;;;2.55;100.00
47670;BME280;33408;52.062;11.722;2023-01-28T10:14:02;102504.97;;;2.66;100.00
47670;BME280;33408;52.062;11.722;2023-01-28T10:16:36;102503.84;;;2.60;100.00
47670;BME280;33408;52.062;11.722;2023-01-28T10:19:09;102500.53;;;2.43;100.00
47670;BME280;33408;52.062;11.722;2023-01-28T10:21:40;102497.66;;;2.54;100.00
47670;BME280;33408;52.062;11.722;2023-01-28T10:24:13;102506.66;;;2.46;98.65
47670;BME280;33408;52.062;11.722;2023-01-28T10:26:43;102505.13;;;2.30;94.97
47670;BME280;33408;52.062;11.722;2023-01-28T10:29:12;102504.78;;;2.42;97.32
47670;BME280;33408;52.062;11.722;2023-01-28T10:31:45;102508.75;;;2.16;97.49
47670;BME280;33408;52.062;11.722;2023-01-28T10:34:17;102506.41;;;2.40;96.02
47670;BME280;33408;52.062;11.722;2023-01-28T10:36:44;102498.41;;;2.32;96.97
47670;BME280;33408;52.062;11.722;2023-01-28T10:39:12;102493.59;;;2.60;97.94
47670;BME280;33408;52.062;11.722;2023-01-28T10:41:40;102490.88;;;2.76;97.39
47670;BME280;33408;52.062;11.722;2023-01-28T10:44:13;102485.81;;;2.37;93.80
47670;BME280;33408;52.062;11.722;2023-01-28T10:46:42;102495.22;;;2.18;96.32
47670;BME280;33408;52.062;11.722;2023-01-28T10:49:13;102497.56;;;2.33;99.78
47670;BME280;33408;52.062;11.722;2023-01-28T10:51:42;102501.22;;;2.39;100.00
47670;BME280;33408;52.062;11.722;2023-01-28T10:54:18;102495.16;;;2.56;100.00
47670;BME280;33408;52.062;11.722;2023-01-28T10:56:46;102503.22;;;2.46;100.00
47670;BME280;33408;52.062;11.722;2023-01-28T10:59:24;102493.75;;;2.43;100.00
47670;BME280;33408;52.062;11.722;2023-01-28T11:01:52;102493.28;;;2.32;96.47
47670;BME280;33408;52.062;11.722;2023-01-28T11:04:23;102488.38;;;2.17;97.94
47670;BME280;33408;52.062;11.722;2023-01-28T11:06:57;102491.50;;;2.31;97.00
47670;BME280;33408;52.062;11.722;2023-01-28T11:09:26;102485.47;;;2.29;96.11
47670;BME280;33408;52.062;11.722;2023-01-28T11:11:53;102500.81;;;2.29;96.94
47670;BME280;33408;52.062;11.722;2023-01-28T11:14:22;102489.53;;;1.87;95.73
47670;BME280;33408;52.062;11.722;2023-01-28T11:16:50;102487.88;;;2.07;96.26
47670;BME280;33408;52.062;11.722;2023-01-28T11:19:18;102484.78;;;2.14;97.73
47670;BME280;33408;52.062;11.722;2023-01-28T11:21:52;102482.69;;;2.44;92.84
47670;BME280;33408;52.062;11.722;2023-01-28T11:24:22;102488.47;;;2.21;92.16
47670;BME280;33408;52.062;11.722;2023-01-28T11:26:53;102477.50;;;1.84;94.29
47670;BME280;33408;52.062;11.722;2023-01-28T11:29:24;102476.66;;;2.03;92.62
47670;BME280;33408;52.062;11.722;2023-01-28T11:31:51;102476.78;;;2.06;93.13
47670;BME280;33408;52.062;11.722;2023-01-28T11:34:19;102476.84;;;2.08;92.90
47670;BME280;33408;52.062;11.722;2023-01-28T11:36:53;102459.88;;;2.29;94.23
47670;BME280;33408;52.062;11.722;2023-01-28T11:39:23;102472.72;;;2.50;93.41
47670;BME280;33408;52.062;11.722;2023-01-28T11:41:52;102459.53;;;2.22;92.24
47670;BME280;33408;52.062;11.722;2023-01-28T11:44:21;102466.34;;;2.21;92.26
47670;BME280;33408;52.062;11.722;2023-01-28T11:49:52;102462.84;;;2.39;92.64
47670;BME280;33408;52.062;11.722;2023-01-28T11:52:25;102469.75;;;2.02;91.46
47670;BME280;33408;52.062;11.722;2023-01-28T11:54:57;102470.41;;;1.98;92.57
47670;BME280;33408;52.062;11.722;2023-01-28T11:57:34;102459.94;;;1.92;91.35
47670;BME280;33408;52.062;11.722;2023-01-28T12:00:26;102464.72;;;2.04;91.74
47670;BME280;33408;52.062;11.722;2023-01-28T12:03:08;102451.44;;;1.93;92.85
47670;BME280;33408;52.062;11.722;2023-01-28T12:05:45;102464.50;;;1.99;91.73
47670;BME280;33408;52.062;11.722;2023-01-28T12:08:19;102464.72;;;2.04;91.88
47670;BME280;33408;52.062;11.722;2023-01-28T12:10:57;102461.56;;;1.72;91.15
47670;BME280;33408;52.062;11.722;2023-01-28T12:13:40;102461.69;;;1.93;90.92
47670;BME280;33408;52.062;11.722;2023-01-28T12:16:30;102455.63;;;1.91;91.09
47670;BME280;33408;52.062;11.722;2023-01-28T12:19:08;102461.69;;;1.93;92.08
47670;BME280;33408;52.062;11.722;2023-01-28T12:21:50;102448.09;;;1.94;92.11
47670;BME280;33408;52.062;11.722;2023-01-28T12:24:32;102449.84;;;1.95;92.82
47670;BME280;33408;52.062;11.722;2023-01-28T12:27:16;102449.03;;;1.96;93.48
47670;BME280;33408;52.062;11.722;2023-01-28T12:29:53;102448.31;;;1.43;93.45
47670;BME280;33408;52.062;11.722;2023-01-28T12:32:34;102450.41;;;1.70;93.25
47670;BME280;33408;52.062;11.722;2023-01-28T12:35:17;102444.19;;;1.82;93.33
47670;BME280;33408;52.062;11.722;2023-01-28T12:37:58;102445.41;;;1.91;93.61
47670;BME280;33408;52.062;11.722;2023-01-28T12:40:42;102438.03;;;1.41;93.93
47670;BME280;33408;52.062;11.722;2023-01-28T12:43:19;102438.50;;;1.70;93.15
47670;BME280;33408;52.062;11.722;2023-01-28T12:45:50;102447.25;;;1.75;93.50
47670;BME280;33408;52.062;11.722;2023-01-28T12:48:23;102445.75;;;1.61;94.87
47670;BME280;33408;52.062;11.722;2023-01-28T12:50:56;102439.88;;;1.44;95.58
47670;BME280;33408;52.062;11.722;2023-01-28T12:53:27;102443.06;;;1.58;96.01
47670;BME280;33408;52.062;11.722;2023-01-28T12:55:59;102440.50;;;1.58;96.41
47670;BME280;33408;52.062;11.722;2023-01-28T12:58:38;102441.97;;;1.53;96.30